Time;durP1;ratioP1;P1;durP2;ratioP2;P2;SDS_P1;SDS_P2;PMS_P1;PMS_P2;Temp;Humidity;BMP_temperature;BMP_pressure;BME280_temperature;BME280_humidity;BME280_pressure;Samples;Min_cycle;Max_cycle;Signal;HPM_P1;HPM_P2
2024/01/19 00:00:31;;;;;;;23.55;10.00;;;;;;;0.87;79.42;100569.75;4947018;28;97672;-70
2024/01/19 00:02:59;;;;;;;20.42;8.63;;;;;;;1.00;78.95;100578.44;4952116;28;98377;-70
2024/01/19 00:05:25;;;;;;;27.35;13.32;;;;;;;0.98;78.96;100573.25;4949370;28;98712;-69
2024/01/19 00:07:52;;;;;;;23.98;11.77;;;;;;;1.24;78.67;100574.97;4950180;28;98851;-70
2024/01/19 00:10:18;;;;;;;22.00;9.55;;;;;;;1.39;76.90;100580.16;4951271;28;102069;-70
2024/01/19 00:12:44;;;;;;;22.13;8.13;;;;;;;1.43;76.18;100581.91;4949899;28;97179;-70
2024/01/19 00:15:11;;;;;;;17.73;8.02;;;;;;;1.58;75.86;100571.44;4949621;28;96800;-70
2024/01/19 00:17:37;;;;;;;16.25;7.57;;;;;;;1.56;75.14;100578.41;4944485;28;101026;-71
2024/01/19 00:20:08;;;;;;;20.20;8.48;;;;;;;1.04;77.33;100586.25;4949910;28;97372;-69
2024/01/19 00:22:35;;;;;;;21.05;8.10;;;;;;;1.08;77.77;100590.59;4951580;28;97248;-71
2024/01/19 00:25:02;;;;;;;23.02;11.68;;;;;;;0.78;79.27;100588.84;4947736;28;97963;-70
2024/01/19 00:27:29;;;;;;;22.73;8.60;;;;;;;0.66;80.29;100598.31;4953431;28;99354;-70
2024/01/19 00:29:55;;;;;;;20.80;8.95;;;;;;;0.76;79.91;100593.16;4950098;28;98977;-71
2024/01/19 00:32:22;;;;;;;22.98;9.13;;;;;;;0.91;78.80;100586.25;4952541;28;99736;-72
2024/01/19 00:34:49;;;;;;;18.92;7.82;;;;;;;0.93;78.10;100594.91;4951954;28;96943;-71
2024/01/19 00:37:17;;;;;;;16.35;5.57;;;;;;;0.48;80.34;100595.69;4949089;28;99120;-71
2024/01/19 00:39:43;;;;;;;22.63;6.97;;;;;;;0.66;79.79;100591.38;4952432;28;98227;-71
2024/01/19 00:42:09;;;;;;;16.63;7.32;;;;;;;0.48;80.38;100596.53;4955745;28;97838;-71
2024/01/19 00:44:36;;;;;;;11.68;5.82;;;;;;;0.58;80.33;100597.47;4951767;28;97025;-70
2024/01/19 00:47:03;;;;;;;15.88;7.13;;;;;;;0.23;81.82;100600.81;4954878;28;97662;-69
2024/01/19 00:49:30;;;;;;;11.20;5.72;;;;;;;0.06;82.45;100596.41;4953324;28;98051;-70
2024/01/19 00:51:56;;;;;;;11.93;6.20;;;;;;;0.01;83.31;100598.97;4955229;28;96721;-69
2024/01/19 00:54:24;;;;;;;12.20;5.95;;;;;;;0.30;82.57;100596.50;4950270;28;98883;-71
2024/01/19 00:56:50;;;;;;;17.02;7.38;;;;;;;0.42;81.33;100600.84;4953297;28;98884;-70
2024/01/19 00:59:17;;;;;;;16.50;6.90;;;;;;;0.36;81.76;100607.78;4948042;28;98774;-69
2024/01/19 01:01:43;;;;;;;13.00;7.20;;;;;;;0.45;82.01;100606.97;4953733;28;97169;-69
2024/01/19 01:04:10;;;;;;;21.08;8.23;;;;;;;0.51;81.41;100599.16;4949806;28;97774;-69
2024/01/19 01:06:36;;;;;;;16.00;7.57;;;;;;;0.56;81.13;100601.78;4950679;28;98043;-71
2024/01/19 01:09:03;;;;;;;18.02;6.93;;;;;;;0.30;81.51;100610.38;4949984;28;98793;-69
2024/01/19 01:11:31;;;;;;;13.57;6.97;;;;;;;0.51;81.37;100606.97;4948159;28;98313;-70
2024/01/19 01:13:58;;;;;;;17.35;7.47;;;;;;;0.56;80.80;100606.97;4941820;28;98742;-69
2024/01/19 01:16:26;;;;;;;15.80;7.25;;;;;;;0.77;80.47;100613.09;4948073;28;98714;-70
2024/01/19 01:18:52;;;;;;;15.38;5.82;;;;;;;0.53;80.17;100614.75;4953658;28;98899;-70
2024/01/19 01:21:18;;;;;;;15.50;6.88;;;;;;;0.64;80.22;100611.34;4951984;28;96730;-70
2024/01/19 01:23:45;;;;;;;13.25;6.95;;;;;;;0.58;80.54;100620.84;4948759;28;98946;-70
2024/01/19 01:26:11;;;;;;;11.98;6.45;;;;;;;0.46;80.09;100619.06;4948224;28;99199;-70
2024/01/19 01:28:39;;;;;;;13.10;6.88;;;;;;;0.53;80.73;100625.16;4951665;28;99173;-71
2024/01/19 01:31:05;;;;;;;16.98;6.63;;;;;;;0.55;80.35;100626.03;4947325;28;97817;-70
2024/01/19 01:33:31;;;;;;;14.07;6.95;;;;;;;0.32;80.92;100631.16;4948505;28;97293;-70
2024/01/19 01:35:58;;;;;;;16.25;8.23;;;;;;;0.70;79.69;100629.56;4949917;28;99294;-70
2024/01/19 01:38:24;;;;;;;23.65;8.20;;;;;;;0.70;79.40;100634.75;4949233;28;98892;-71
2024/01/19 01:40:50;;;;;;;18.67;7.20;;;;;;;0.41;80.51;100638.97;4948146;28;96811;-70
2024/01/19 01:43:22;;;;;;;14.35;8.10;;;;;;;0.57;80.65;100640.78;4948982;28;96891;-70
2024/01/19 01:45:50;;;;;;;17.65;8.20;;;;;;;0.47;80.29;100636.41;4947173;28;99425;-70
2024/01/19 01:48:16;;;;;;;13.63;7.82;;;;;;;0.12;82.01;100643.19;4948772;28;98119;-70
2024/01/19 01:50:43;;;;;;;15.80;7.22;;;;;;;0.08;82.49;100644.03;4950569;28;97105;-71
2024/01/19 01:53:10;;;;;;;19.38;8.60;;;;;;;0.24;82.21;100646.72;4947411;28;97923;-71
2024/01/19 01:55:36;;;;;;;19.20;7.57;;;;;;;0.29;81.49;100637.22;4951432;28;100644;-70
2024/01/19 01:58:04;;;;;;;14.43;7.75;;;;;;;0.51;80.10;100650.31;4949205;28;98999;-70
2024/01/19 02:00:30;;;;;;;19.05;7.88;;;;;;;0.62;79.19;100654.66;4950924;28;96926;-70
2024/01/19 02:03:01;;;;;;;13.38;6.93;;;;;;;0.22;81.56;100661.44;4947742;28;98612;-70
2024/01/19 02:05:27;;;;;;;18.65;8.63;;;;;;;0.51;80.04;100666.78;4953261;28;98247;-69
2024/01/19 02:07:53;;;;;;;11.38;5.97;;;;;;;0.55;80.10;100665.03;4953604;28;98866;-70
2024/01/19 02:10:20;;;;;;;17.20;8.52;;;;;;;0.44;79.93;100669.34;4952894;28;97210;-70
2024/01/19 02:12:47;;;;;;;18.83;7.55;;;;;;;0.00;81.69;100675.19;4953948;28;97181;-70
2024/01/19 02:15:19;;;;;;;13.88;6.47;;;;;;;0.30;80.89;100671.88;4948851;28;99031;-70
2024/01/19 02:17:46;;;;;;;22.75;7.47;;;;;;;0.01;82.07;100676.88;4950596;28;98771;-70
2024/01/19 02:20:13;;;;;;;19.58;7.47;;;;;;;0.20;81.58;100678.72;4950626;28;97842;-70
2024/01/19 02:22:40;;;;;;;16.45;7.90;;;;;;;0.64;79.92;100676.34;4953251;28;97103;-67
2024/01/19 02:25:08;;;;;;;16.85;8.13;;;;;;;0.73;78.24;100678.09;4951275;28;98364;-68
2024/01/19 02:27:35;;;;;;;18.38;6.82;;;;;;;0.60;78.78;100684.13;4950917;28;99390;-69
2024/01/19 02:30:02;;;;;;;20.15;7.68;;;;;;;1.01;77.05;100676.44;4951654;28;97156;-69
2024/01/19 02:32:31;;;;;;;16.38;7.22;;;;;;;1.01;76.71;100682.53;4951683;28;96882;-68
2024/01/19 02:34:57;;;;;;;15.20;7.90;;;;;;;1.00;76.16;100685.97;4950509;28;99450;-69
2024/01/19 02:37:23;;;;;;;19.75;7.68;;;;;;;1.16;75.82;100685.16;4950624;28;101486;-70
2024/01/19 02:39:50;;;;;;;15.43;7.70;;;;;;;0.99;75.91;100686.84;4951925;28;98818;-70
2024/01/19 02:42:18;;;;;;;16.10;7.10;;;;;;;0.67;77.14;100686.75;4947942;28;97783;-70
2024/01/19 02:44:44;;;;;;;13.40;7.50;;;;;;;0.79;76.32;100671.19;4952642;28;97720;-70
2024/01/19 02:47:11;;;;;;;12.73;6.82;;;;;;;0.44;77.56;100680.59;4952683;28;100865;-70
2024/01/19 02:49:37;;;;;;;14.27;6.22;;;;;;;0.52;77.94;100680.63;4954703;28;97362;-70
2024/01/19 02:52:04;;;;;;;17.98;6.32;;;;;;;0.58;77.07;100675.47;4951041;28;97505;-70
2024/01/19 02:54:30;;;;;;;13.43;6.50;;;;;;;0.45;78.28;100678.88;4949562;28;98941;-70
2024/01/19 02:56:56;;;;;;;14.70;6.07;;;;;;;0.54;78.08;100676.28;4952774;28;99144;-70
2024/01/19 02:59:24;;;;;;;13.15;5.38;;;;;;;0.30;78.07;100677.94;4951230;28;98930;-70
2024/01/19 03:01:50;;;;;;;11.48;4.60;;;;;;;0.52;77.04;100673.72;4951501;28;96915;-70
2024/01/19 03:04:17;;;;;;;10.52;4.38;;;;;;;0.34;77.63;100673.59;4953081;28;98830;-70
2024/01/19 03:06:43;;;;;;;14.45;5.70;;;;;;;0.57;76.39;100679.78;4949096;28;99333;-70
2024/01/19 03:09:09;;;;;;;20.48;5.28;;;;;;;0.70;76.01;100676.38;4948615;28;98698;-69
2024/01/19 03:11:36;;;;;;;12.23;5.35;;;;;;;0.78;74.97;100677.28;4951800;28;101149;-68
2024/01/19 03:14:02;;;;;;;10.23;5.22;;;;;;;0.36;75.93;100680.56;4950100;28;101857;-71
2024/01/19 03:16:30;;;;;;;9.70;4.80;;;;;;;0.52;75.80;100678.91;4948382;28;98949;-72
2024/01/19 03:19:00;;;;;;;8.95;3.38;;;;;;;0.31;76.22;100681.41;4950042;28;97028;-70
2024/01/19 03:21:26;;;;;;;11.95;4.22;;;;;;;0.50;75.68;100688.44;4952588;28;98606;-70
2024/01/19 03:23:53;;;;;;;9.05;4.55;;;;;;;0.65;75.04;100691.09;4951745;28;98881;-70
2024/01/19 03:26:19;;;;;;;10.02;4.20;;;;;;;0.71;73.90;100683.31;4950277;28;98114;-70
2024/01/19 03:28:45;;;;;;;12.68;4.38;;;;;;;0.79;74.12;100683.31;4951468;28;97897;-70
2024/01/19 03:31:12;;;;;;;9.65;4.30;;;;;;;0.71;74.18;100685.91;4951649;28;98667;-70
2024/01/19 03:33:39;;;;;;;14.10;4.15;;;;;;;0.78;73.79;100690.28;4947658;28;98873;-70
2024/01/19 03:36:06;;;;;;;19.08;4.70;;;;;;;0.83;72.63;100687.69;4954369;28;100188;-70
2024/01/19 03:38:33;;;;;;;13.00;3.25;;;;;;;-0.04;76.14;100683.78;4949100;28;100739;-69
2024/01/19 03:41:00;;;;;;;9.70;4.28;;;;;;;-0.17;77.70;100687.16;4950657;28;96820;-69
2024/01/19 03:43:27;;;;;;;9.75;3.33;;;;;;;-0.14;77.52;100682.88;4949952;28;98819;-70
2024/01/19 03:45:53;;;;;;;11.13;3.95;;;;;;;-0.03;77.25;100686.41;4952117;28;98891;-70
2024/01/19 03:48:22;;;;;;;23.55;4.72;;;;;;;0.19;76.21;100692.63;4948094;28;98624;-69
2024/01/19 03:50:49;;;;;;;16.65;4.60;;;;;;;0.09;77.07;100690.81;4952371;28;97171;-69
2024/01/19 03:53:16;;;;;;;12.52;3.58;;;;;;;0.19;76.12;100691.75;4948417;28;101672;-69
2024/01/19 03:55:42;;;;;;;12.48;4.10;;;;;;;0.36;75.88;100696.16;4952415;28;99597;-70
2024/01/19 03:58:08;;;;;;;9.38;3.47;;;;;;;0.61;74.49;100698.84;4951187;28;97150;-70
2024/01/19 04:00:35;;;;;;;11.32;4.18;;;;;;;0.71;74.31;100698.91;4951149;28;96893;-70
2024/01/19 04:03:01;;;;;;;11.82;3.67;;;;;;;0.93;73.42;100701.56;4950032;28;102189;-70
2024/01/19 04:05:28;;;;;;;14.38;4.18;;;;;;;1.06;72.56;100700.72;4950714;28;97572;-69
2024/01/19 04:07:56;;;;;;;11.15;4.50;;;;;;;0.96;72.75;100694.66;4949234;28;96887;-71
2024/01/19 04:10:23;;;;;;;10.07;3.92;;;;;;;1.18;72.13;100693.81;4950015;28;99451;-71
2024/01/19 04:12:50;;;;;;;7.63;4.30;;;;;;;0.97;72.79;100703.34;4949382;28;99311;-71
2024/01/19 04:15:17;;;;;;;9.93;3.97;;;;;;;0.99;72.61;100705.06;4952752;28;98117;-71
2024/01/19 04:17:44;;;;;;;9.60;4.28;;;;;;;0.89;73.10;100705.91;4948672;28;96717;-71
2024/01/19 04:20:11;;;;;;;8.27;3.78;;;;;;;0.80;73.04;100705.88;4949758;28;99924;-71
2024/01/19 04:22:38;;;;;;;17.42;4.25;;;;;;;0.44;74.95;100698.81;4950459;28;99379;-71
2024/01/19 04:25:06;;;;;;;6.93;3.15;;;;;;;0.59;75.18;100696.25;4950414;28;99188;-71
2024/01/19 04:27:33;;;;;;;12.73;3.33;;;;;;;0.46;75.09;100706.63;4948407;28;96814;-71
2024/01/19 04:29:59;;;;;;;14.32;4.82;;;;;;;0.56;74.75;100703.19;4950956;28;97490;-71
2024/01/19 04:32:25;;;;;;;12.70;3.85;;;;;;;0.91;73.45;100695.50;4949932;28;98912;-70
2024/01/19 04:34:52;;;;;;;8.13;3.50;;;;;;;0.70;73.69;100704.09;4943921;28;98762;-71
2024/01/19 04:37:18;;;;;;;9.05;3.55;;;;;;;0.69;73.90;100694.56;4949797;28;96874;-71
2024/01/19 04:39:44;;;;;;;7.78;4.00;;;;;;;0.53;74.87;100692.75;4950929;28;97354;-69
2024/01/19 04:42:12;;;;;;;7.57;3.13;;;;;;;0.70;73.54;100704.97;4951813;28;98890;-70
2024/01/19 04:44:39;;;;;;;9.20;3.13;;;;;;;0.64;74.46;100709.28;4949630;28;98842;-70
2024/01/19 04:47:05;;;;;;;8.63;3.60;;;;;;;0.75;73.64;100705.84;4952034;28;97541;-71
2024/01/19 04:49:32;;;;;;;9.48;3.67;;;;;;;0.67;74.05;100706.69;4945840;28;97534;-71
2024/01/19 04:51:58;;;;;;;7.07;3.17;;;;;;;0.57;74.03;100704.91;4948373;28;99503;-70
2024/01/19 04:54:25;;;;;;;9.45;3.67;;;;;;;0.35;75.58;100712.59;4948344;28;98735;-70
2024/01/19 04:56:51;;;;;;;6.97;3.03;;;;;;;0.79;73.91;100717.13;4950923;28;96737;-70
2024/01/19 04:59:19;;;;;;;7.43;3.72;;;;;;;1.23;71.97;100722.47;4949614;28;96746;-70
2024/01/19 05:01:46;;;;;;;11.32;3.42;;;;;;;1.05;72.23;100731.09;4947424;28;99282;-70
2024/01/19 05:04:12;;;;;;;8.93;2.45;;;;;;;1.07;71.59;100723.28;4948720;28;98922;-70
2024/01/19 05:06:38;;;;;;;8.50;3.40;;;;;;;0.87;72.57;100728.44;4947466;28;97797;-70
2024/01/19 05:09:05;;;;;;;9.23;2.85;;;;;;;0.95;72.60;100724.13;4949036;28;96851;-69
2024/01/19 05:11:31;;;;;;;8.38;2.97;;;;;;;1.13;72.22;100733.72;4949060;28;98952;-70
2024/01/19 05:13:58;;;;;;;8.07;2.55;;;;;;;1.20;71.52;100732.88;4949041;28;99080;-71
2024/01/19 05:16:25;;;;;;;6.05;2.75;;;;;;;0.95;72.16;100725.88;4950003;28;97278;-70
2024/01/19 05:18:52;;;;;;;5.90;2.50;;;;;;;0.79;73.75;100733.59;4946423;28;96775;-69
2024/01/19 05:21:18;;;;;;;18.92;4.63;;;;;;;1.11;71.48;100741.53;4952381;28;98882;-70
2024/01/19 05:23:45;;;;;;;6.38;2.35;;;;;;;1.13;72.04;100737.19;4947142;28;99177;-70
2024/01/19 05:26:11;;;;;;;6.22;2.22;;;;;;;0.59;74.09;100726.63;4953074;28;96786;-69
2024/01/19 05:28:37;;;;;;;6.60;3.15;;;;;;;0.88;73.96;100739.72;4947708;28;97313;-70
2024/01/19 05:31:04;;;;;;;10.63;2.60;;;;;;;1.13;72.27;100739.78;4953855;28;98039;-70
2024/01/19 05:33:34;;;;;;;5.15;2.50;;;;;;;1.43;70.75;100728.59;4947470;28;99195;-71
2024/01/19 05:36:01;;;;;;;9.10;2.55;;;;;;;1.33;70.91;100738.97;4948839;28;96861;-71
2024/01/19 05:38:27;;;;;;;11.65;2.55;;;;;;;0.90;72.40;100749.28;4946250;28;97474;-71
2024/01/19 05:40:55;;;;;;;8.00;2.70;;;;;;;1.14;71.35;100738.06;4948527;28;99302;-71
2024/01/19 05:43:21;;;;;;;4.72;2.17;;;;;;;1.23;71.09;100751.13;4949689;28;98576;-70
2024/01/19 05:45:47;;;;;;;5.88;1.92;;;;;;;0.92;72.00;100750.13;4946786;28;97513;-70
2024/01/19 05:48:14;;;;;;;3.35;1.83;;;;;;;0.76;73.20;100756.16;4950502;28;97536;-70
2024/01/19 05:50:41;;;;;;;5.25;1.90;;;;;;;0.91;73.00;100753.63;4949527;28;99339;-70
2024/01/19 05:53:07;;;;;;;5.55;2.30;;;;;;;1.11;72.24;100756.28;4943308;28;99385;-70
2024/01/19 05:55:34;;;;;;;6.63;1.85;;;;;;;0.81;72.77;100767.44;4947294;28;97378;-70
2024/01/19 05:58:02;;;;;;;4.82;1.60;;;;;;;0.87;73.30;100750.97;4949105;28;96994;-70
2024/01/19 06:00:29;;;;;;;4.00;2.20;;;;;;;0.96;72.99;100757.09;4951975;28;97625;-72
2024/01/19 06:02:55;;;;;;;3.75;1.63;;;;;;;0.98;72.94;100764.91;4952097;28;99911;-70
2024/01/19 06:05:22;;;;;;;7.00;1.90;;;;;;;0.67;73.39;100766.50;4954332;28;97122;-70
2024/01/19 06:07:49;;;;;;;2.92;1.48;;;;;;;0.70;73.34;100775.19;4949634;28;97169;-71
2024/01/19 06:10:16;;;;;;;6.03;3.25;;;;;;;0.96;72.60;100777.91;4949608;28;98833;-70
2024/01/19 06:12:42;;;;;;;5.32;2.08;;;;;;;1.03;72.24;100774.47;4950649;28;98840;-70
2024/01/19 06:15:09;;;;;;;6.70;2.13;;;;;;;0.98;71.99;100785.75;4949375;28;97257;-70
2024/01/19 06:17:35;;;;;;;6.65;2.38;;;;;;;0.97;72.78;100781.38;4950670;28;97404;-70
2024/01/19 06:20:02;;;;;;;5.35;2.22;;;;;;;0.96;72.45;100783.13;4943912;28;100773;-71
2024/01/19 06:22:29;;;;;;;7.18;2.70;;;;;;;1.14;72.29;100775.38;4952066;28;99884;-70
2024/01/19 06:24:57;;;;;;;3.83;1.85;;;;;;;0.89;73.14;100781.34;4946301;28;97258;-69
2024/01/19 06:27:23;;;;;;;8.55;2.60;;;;;;;1.07;73.03;100776.22;4950525;28;97070;-69
2024/01/19 06:29:49;;;;;;;5.07;2.13;;;;;;;1.16;72.52;100791.88;4947409;28;98821;-69
2024/01/19 06:32:16;;;;;;;5.00;2.33;;;;;;;1.23;72.68;100791.88;4951018;28;98573;-69
2024/01/19 06:34:43;;;;;;;7.63;2.40;;;;;;;1.08;72.89;100793.56;4949724;28;98023;-69
2024/01/19 06:37:10;;;;;;;5.63;2.47;;;;;;;0.87;74.15;100798.69;4951249;28;97173;-69
2024/01/19 06:39:36;;;;;;;6.18;2.05;;;;;;;0.68;75.25;100802.94;4952104;28;99069;-69
2024/01/19 06:42:04;;;;;;;6.85;2.15;;;;;;;0.84;75.21;100801.28;4950004;28;99244;-69
2024/01/19 06:44:31;;;;;;;10.20;4.38;;;;;;;0.83;74.37;100801.28;4953674;28;97037;-69
2024/01/19 06:46:57;;;;;;;9.25;2.60;;;;;;;0.77;75.65;100802.13;4950614;28;97372;-69
2024/01/19 06:49:23;;;;;;;5.55;2.13;;;;;;;0.73;75.67;100800.34;4953628;28;98846;-69
2024/01/19 06:51:50;;;;;;;6.25;2.38;;;;;;;1.04;74.61;100804.84;4949976;28;99103;-69
2024/01/19 06:54:16;;;;;;;7.38;3.13;;;;;;;0.98;74.53;100799.63;4955828;28;96784;-70
2024/01/19 06:56:43;;;;;;;9.48;2.53;;;;;;;1.06;74.34;100807.44;4956079;28;97186;-69
2024/01/19 06:59:11;;;;;;;4.53;2.00;;;;;;;1.30;73.15;100802.34;4954928;28;100960;-70
2024/01/19 07:01:38;;;;;;;6.53;2.50;;;;;;;1.22;74.06;100800.56;4950308;28;101190;-69
2024/01/19 07:04:05;;;;;;;8.73;2.58;;;;;;;1.67;72.43;100816.28;4947868;28;97915;-69
2024/01/19 07:06:33;;;;;;;7.32;2.78;;;;;;;1.45;72.93;100819.69;4943795;28;98893;-69
2024/01/19 07:08:59;;;;;;;6.38;2.20;;;;;;;1.56;72.58;100813.69;4940739;28;99395;-69
2024/01/19 07:11:26;;;;;;;7.35;2.10;;;;;;;1.37;73.30;100827.53;4934902;28;98770;-69
2024/01/19 07:13:52;;;;;;;8.07;2.13;;;;;;;1.25;73.49;100831.81;4933104;28;100370;-71
2024/01/19 07:16:20;;;;;;;8.15;2.20;;;;;;;1.07;74.53;100833.47;4934235;28;100494;-70
2024/01/19 07:18:46;;;;;;;14.75;3.38;;;;;;;1.17;74.35;100835.25;4943408;28;98990;-70
2024/01/19 07:21:13;;;;;;;7.82;2.67;;;;;;;1.39;73.88;100825.78;4947820;28;98971;-70
2024/01/19 07:23:39;;;;;;;6.10;2.30;;;;;;;1.17;73.88;100837.00;4947873;28;97311;-70
2024/01/19 07:26:06;;;;;;;7.30;2.83;;;;;;;1.52;73.62;100843.16;4948280;28;96878;-70
2024/01/19 07:28:32;;;;;;;9.23;2.85;;;;;;;1.71;72.13;100846.69;4948475;28;98276;-71
2024/01/19 07:30:58;;;;;;;12.23;3.25;;;;;;;1.51;73.56;100840.59;4954009;28;98892;-71
2024/01/19 07:33:26;;;;;;;5.82;1.98;;;;;;;1.14;74.96;100842.16;4949377;28;97946;-71
2024/01/19 07:35:53;;;;;;;9.23;3.47;;;;;;;1.11;75.58;100852.59;4951227;28;97182;-70
2024/01/19 07:38:19;;;;;;;9.15;2.92;;;;;;;1.06;75.41;100854.28;4950974;28;98905;-71
2024/01/19 07:40:45;;;;;;;6.65;2.70;;;;;;;0.91;76.52;100849.00;4947519;28;99269;-71
2024/01/19 07:43:12;;;;;;;7.72;2.53;;;;;;;1.02;76.27;100855.13;4948957;28;97192;-71
2024/01/19 07:45:38;;;;;;;9.55;4.18;;;;;;;1.33;75.29;100845.72;4952297;28;97299;-71
2024/01/19 07:48:05;;;;;;;8.88;3.97;;;;;;;1.31;75.60;100844.84;4947618;28;98937;-71
2024/01/19 07:50:32;;;;;;;9.65;3.00;;;;;;;1.33;74.33;100862.19;4947947;28;98865;-72
2024/01/19 07:52:59;;;;;;;8.13;3.20;;;;;;;1.66;73.68;100860.56;4946163;28;97599;-73
2024/01/19 07:55:25;;;;;;;8.43;3.35;;;;;;;1.51;74.07;100869.22;4950182;28;97594;-72
2024/01/19 07:57:51;;;;;;;12.15;3.05;;;;;;;1.53;73.81;100886.59;4949869;28;98818;-73
2024/01/19 08:00:18;;;;;;;8.82;3.20;;;;;;;1.81;73.33;100871.03;4943581;28;99284;-71
2024/01/19 08:02:46;;;;;;;10.15;3.63;;;;;;;1.63;72.96;100871.00;4939444;28;98814;-71
2024/01/19 08:05:12;;;;;;;11.05;3.58;;;;;;;1.80;72.43;100890.13;4942684;28;98709;-70
2024/01/19 08:07:40;;;;;;;9.88;3.25;;;;;;;1.75;73.36;100889.25;4942839;28;100475;-70
2024/01/19 08:10:07;;;;;;;9.32;3.40;;;;;;;1.53;74.67;100896.13;4944388;28;100584;-72
2024/01/19 08:12:34;;;;;;;7.60;2.97;;;;;;;1.30;75.45;100892.56;4944470;28;98074;-71
2024/01/19 08:15:00;;;;;;;7.47;3.10;;;;;;;1.52;74.53;100892.66;4946241;28;97687;-71
2024/01/19 08:17:27;;;;;;;11.65;3.83;;;;;;;1.19;76.93;100901.19;4945172;28;98968;-70
2024/01/19 08:19:53;;;;;;;11.60;4.22;;;;;;;1.54;75.63;100896.13;4945246;28;98781;-70
2024/01/19 08:22:20;;;;;;;11.45;3.55;;;;;;;1.27;76.73;100896.03;4938734;28;98876;-70
2024/01/19 08:24:47;;;;;;;7.07;3.42;;;;;;;1.33;76.56;100893.44;4946869;28;97921;-69
2024/01/19 08:27:14;;;;;;;11.02;3.60;;;;;;;1.33;77.24;100892.56;4948667;28;99399;-70
2024/01/19 08:29:40;;;;;;;6.70;3.67;;;;;;;1.52;75.97;100910.00;4953918;28;98997;-72
2024/01/19 08:32:06;;;;;;;10.85;3.97;;;;;;;1.81;75.02;100910.97;4949857;28;96782;-69
2024/01/19 08:34:33;;;;;;;13.13;3.90;;;;;;;1.56;74.88;100923.06;4949944;28;97861;-71
2024/01/19 08:36:59;;;;;;;6.05;3.60;;;;;;;1.20;77.52;100920.28;4947399;28;99126;-70
2024/01/19 08:39:25;;;;;;;7.32;3.28;;;;;;;1.69;75.93;100923.09;4947393;28;98895;-70
2024/01/19 08:41:53;;;;;;;9.52;3.85;;;;;;;1.66;76.07;100929.16;4941078;28;98728;-71
2024/01/19 08:44:20;;;;;;;11.70;4.72;;;;;;;2.10;74.30;100921.47;4941383;28;97626;-71
2024/01/19 08:46:47;;;;;;;10.30;3.92;;;;;;;2.09;73.91;100929.28;4946090;28;99392;-71
2024/01/19 08:49:13;;;;;;;10.23;4.60;;;;;;;2.26;73.83;100933.66;4949332;28;98001;-71
2024/01/19 08:51:40;;;;;;;8.68;3.63;;;;;;;1.86;74.72;100934.44;4947304;28;97562;-70
2024/01/19 08:54:06;;;;;;;9.60;4.45;;;;;;;1.95;75.18;100929.25;4946457;28;97293;-71
2024/01/19 08:56:33;;;;;;;12.10;4.60;;;;;;;2.21;74.09;100931.91;4949924;28;99158;-71
2024/01/19 08:59:01;;;;;;;6.47;3.53;;;;;;;1.57;76.12;100945.66;4948900;28;101661;-70
2024/01/19 09:01:27;;;;;;;11.10;3.92;;;;;;;2.19;74.78;100938.84;4949373;28;96782;-71
2024/01/19 09:03:53;;;;;;;15.55;4.68;;;;;;;2.22;74.09;100944.09;4945157;28;96818;-71
2024/01/19 09:06:20;;;;;;;9.45;4.78;;;;;;;2.31;74.75;100954.50;4946411;28;100559;-71
2024/01/19 09:08:46;;;;;;;11.40;4.63;;;;;;;3.12;71.51;100950.16;4945217;28;97924;-70
2024/01/19 09:11:13;;;;;;;11.35;5.25;;;;;;;2.57;71.94;100946.72;4947632;28;97934;-71
2024/01/19 09:13:39;;;;;;;10.82;5.03;;;;;;;2.39;74.60;100960.63;4948556;28;97361;-70
2024/01/19 09:16:08;;;;;;;7.70;4.13;;;;;;;2.75;72.34;100965.00;4949125;28;99323;-71
2024/01/19 09:18:35;;;;;;;11.80;5.15;;;;;;;2.83;71.95;100967.56;4947482;28;101325;-71
2024/01/19 09:21:02;;;;;;;11.85;4.47;;;;;;;2.69;72.01;100970.22;4949709;28;96879;-72
2024/01/19 09:23:28;;;;;;;8.77;5.03;;;;;;;2.96;72.06;100980.63;4942672;28;97146;-71
2024/01/19 09:25:55;;;;;;;7.90;4.50;;;;;;;2.84;71.22;100987.59;4943951;28;98804;-72
2024/01/19 09:28:21;;;;;;;7.18;4.13;;;;;;;2.48;72.71;100991.06;4948995;28;99113;-71
2024/01/19 09:30:48;;;;;;;11.82;4.38;;;;;;;2.49;73.50;100987.59;4949336;28;96774;-71
2024/01/19 09:33:15;;;;;;;11.68;5.20;;;;;;;2.26;74.95;100985.81;4947895;28;97511;-71
2024/01/19 09:35:42;;;;;;;11.93;5.63;;;;;;;2.57;74.08;100985.84;4947135;28;98491;-71
2024/01/19 09:38:08;;;;;;;11.00;4.63;;;;;;;2.74;72.67;100991.97;4946376;28;99038;-71
2024/01/19 09:40:35;;;;;;;14.90;6.13;;;;;;;3.02;72.25;101004.09;4944906;28;97298;-71
2024/01/19 09:43:02;;;;;;;15.25;5.47;;;;;;;2.82;73.32;101002.41;4941190;28;99956;-71
2024/01/19 09:45:39;;;;;;;18.27;5.60;;;;;;;2.98;72.25;100997.16;4943522;28;98854;-71
2024/01/19 09:48:18;;;;;;;11.23;4.82;;;;;;;3.03;71.71;100999.75;4949068;28;99161;-72
2024/01/19 09:50:48;;;;;;;9.43;4.70;;;;;;;3.14;71.09;101004.13;4947103;28;97358;-71
2024/01/19 09:53:22;;;;;;;9.73;4.43;;;;;;;3.06;72.12;101010.22;4939848;28;97188;-71
2024/01/19 09:55:48;;;;;;;11.27;5.47;;;;;;;3.28;71.19;101019.78;4946092;28;99085;-71
2024/01/19 09:58:16;;;;;;;8.23;4.30;;;;;;;3.28;70.51;101016.28;4949034;28;97774;-71
2024/01/19 10:00:42;;;;;;;7.35;3.80;;;;;;;2.95;71.77;101015.44;4947473;28;96980;-71
2024/01/19 10:03:09;;;;;;;5.82;3.53;;;;;;;2.63;72.89;101019.75;4942130;28;96895;-71
2024/01/19 10:05:36;;;;;;;9.07;3.97;;;;;;;3.13;72.17;101030.22;4949057;28;101735;-71
2024/01/19 10:08:06;;;;;;;11.35;4.65;;;;;;;3.51;70.55;101022.31;4948852;28;98901;-70
2024/01/19 10:10:32;;;;;;;13.10;5.43;;;;;;;3.99;69.07;101035.25;4947923;28;97043;-71
2024/01/19 10:12:59;;;;;;;8.40;4.05;;;;;;;3.80;68.47;101030.97;4944783;28;98002;-72
2024/01/19 10:15:25;;;;;;;11.80;5.40;;;;;;;3.89;68.30;101035.28;4946753;28;102277;-70
2024/01/19 10:17:52;;;;;;;12.32;5.78;;;;;;;4.16;67.85;101037.78;4945672;28;99118;-71
2024/01/19 10:20:19;;;;;;;12.70;4.95;;;;;;;3.96;67.83;101040.47;4941546;28;98294;-71
2024/01/19 10:22:45;;;;;;;8.32;4.47;;;;;;;3.51;69.35;101046.72;4939964;28;101670;-72
2024/01/19 10:25:14;;;;;;;9.50;4.70;;;;;;;2.83;72.01;101044.13;4949072;28;100186;-72
2024/01/19 10:27:44;;;;;;;9.02;4.40;;;;;;;2.70;73.79;101048.47;4949039;28;98745;-71
2024/01/19 10:30:13;;;;;;;10.25;5.15;;;;;;;2.79;74.19;101048.50;4949252;28;97581;-70
2024/01/19 10:32:40;;;;;;;9.43;4.45;;;;;;;2.78;74.43;101051.97;4945833;28;97281;-71
2024/01/19 10:35:08;;;;;;;9.13;4.90;;;;;;;3.58;72.50;101056.28;4953963;28;98957;-70
2024/01/19 10:37:35;;;;;;;9.88;5.47;;;;;;;3.72;70.83;101056.25;4947149;28;98895;-71
2024/01/19 10:40:22;;;;;;;9.48;5.88;;;;;;;3.67;70.91;101064.97;4948095;28;99133;-71
2024/01/19 10:42:50;;;;;;;9.85;4.85;;;;;;;3.91;70.05;101057.94;4943344;28;97619;-70
2024/01/19 10:45:22;;;;;;;12.90;5.47;;;;;;;4.12;69.05;101061.34;4944093;28;97764;-72
2024/01/19 10:47:50;;;;;;;9.00;4.32;;;;;;;3.76;69.90;101067.56;4944014;28;99153;-71
2024/01/19 10:50:17;;;;;;;11.00;5.18;;;;;;;4.18;69.13;101070.03;4946936;28;97768;-71
2024/01/19 10:52:44;;;;;;;12.20;5.30;;;;;;;3.73;70.49;101070.19;4942106;28;97101;-71
2024/01/19 10:55:18;;;;;;;16.15;5.63;;;;;;;3.52;71.77;101081.56;4943087;28;100712;-71
2024/01/19 10:57:46;;;;;;;8.82;4.47;;;;;;;3.70;71.04;101080.63;4946822;28;99187;-70
2024/01/19 11:00:20;;;;;;;8.73;4.20;;;;;;;3.87;70.27;101084.94;4952387;28;97498;-71
2024/01/19 11:02:48;;;;;;;11.30;5.32;;;;;;;3.97;70.27;101088.41;4948770;28;97032;-71
2024/01/19 11:05:16;;;;;;;10.32;4.80;;;;;;;4.18;69.11;101095.31;4948013;28;98779;-71
2024/01/19 11:07:43;;;;;;;17.42;4.65;;;;;;;3.90;71.07;101099.75;4952611;28;98876;-70
2024/01/19 11:10:09;;;;;;;16.45;5.80;;;;;;;4.01;70.39;101097.97;4949427;28;98782;-71
2024/01/19 11:12:38;;;;;;;13.68;4.97;;;;;;;4.22;69.56;101107.50;4941870;28;100122;-71
2024/01/19 11:15:10;;;;;;;10.60;4.30;;;;;;;3.54;71.49;101109.41;4946934;28;98864;-70
2024/01/19 11:17:38;;;;;;;14.18;5.20;;;;;;;4.03;71.69;101105.81;4940739;28;98736;-71
2024/01/19 11:20:05;;;;;;;14.35;5.20;;;;;;;4.45;68.72;101124.00;4949850;28;97855;-71
2024/01/19 11:22:32;;;;;;;13.98;4.68;;;;;;;4.56;68.64;101116.94;4950156;28;97282;-71
2024/01/19 11:25:07;;;;;;;10.52;4.35;;;;;;;3.91;69.81;101114.59;4946123;28;97789;-71